New Bedford Regional Airport New Bedford US
ICAO: KEWB
IATA: EWB
Category: Medium
Scheduled Services: Yes

Elevation: 80 ft
TransAlt. 18000 ft.

Airport Communications:
PROVIDENCE APP/DEP:128.7
ATIS:126.85
CTAF:118.1
GND:121.9
TWR:118.1
UNICOM:122.95

KEWB Zoom In..

Runways:

(A) RW 05 length 4997 ft width 150 ft
ILS 109.70 / hdg 54

(B) RW 14 length 5000 ft width 150 ft
---- / hdg 144

(C) RW 23 length 4997 ft width 150 ft
---- / hdg 234

(D) RW 32 length 5000 ft width 150 ft
---- / hdg 324

Location; KEWB
Day. 13 / Time. 12.53 Zulu
* Altimeter: 29.77
* Temperature: 24° c. 75.2°f.
* Wind from: 240° Speed 04 kn.
Dewpoint: 21° c.
Visibility: 10 Statute Miles.
Clouds: Broken 1000 ft.

KEWB 131253Z 24004KT 10SM BKN100 24/21 A2977 RMK AO2 SLP081 T02390211

Going to: --> -->


Wind From 240°
Speed 04 kn.

 
 
jpsmedia worldairports.se 2020   terms of use